Portada
METAR-TAF:

METAR-TAF

Aeropuertos :

Aeropuerto Internacional del Caribe Santiago Mariño

Isla de Margarita, Venezuela

latitud: 10-55N, longitud: 063-59W, altitud: 23 m

Observación

El informe se hizo hace 41 minutos, a las 19:00 UTC
Temperatura 33°C
Humedad 59%
Presión 1010 hPa
Visibilidad 10 km o más
Nubes dispersas a una altura de 1000 ft

METAR: SVMG 231900Z /////KT 9999 SCT010 33/24 Q1010 NOSIG

Hora: 15:41 (19:41 UTC)

Pronóstico

El informe se hizo hace 3 horas y 41 minutos, a las 16:00 UTC
Pronóstico válido del 23 a las 18 UTC al 24 a las 18 UTC
Viento 6 kt del este
Visibilidad 10 km o más
Escasas nubes a una altura de 1000 ft
Evolucionando progresivamente
del 23 a las 18 UTC al 23 a las 22 UTC
Viento 4 kt del sureste
Nubes dispersas a una altura de 7000 ft

TAF: SVMG 231600Z 2318/2418 09006KT 9999 FEW010 TX30/18Z TN24/09Z BECMG 2318/2322 14004KT SCT070

Observaciones y pronósticos meteorológicos de más de 4000 aeropuertos (mensajes METAR y TAF).

Los puntos amarillos y rojos representan las estaciones disponibles.

Ponga el ratón en el punto deseado para ver el nombre de la estación.

Haga clic para ver las observaciones y los pronósticos meteorológicos.

Para cambiar el mapa : haga clic en los botones verdes con una cruz de color negro para hacer un zoom, en el botón verde con un guión para alejar o en las flechas verdes para mapas adyacentes.


METAR-TAF: